sensor_id;sensor_type;location;lat;lon;timestamp;P1;durP1;ratioP1;P2;durP2;ratioP2
32393;SDS011;18853;45.426;9.206;2023-10-19T00:00:36;50.38;;;36.60;;
32393;SDS011;18853;45.426;9.206;2023-10-19T00:03:09;51.83;;;37.72;;
32393;SDS011;18853;45.426;9.206;2023-10-19T00:05:36;53.45;;;36.80;;
32393;SDS011;18853;45.426;9.206;2023-10-19T00:08:02;50.65;;;38.75;;
32393;SDS011;18853;45.426;9.206;2023-10-19T00:10:38;51.65;;;37.92;;
32393;SDS011;18853;45.426;9.206;2023-10-19T00:13:05;52.13;;;38.47;;
32393;SDS011;18853;45.426;9.206;2023-10-19T00:15:33;50.80;;;38.10;;
32393;SDS011;18853;45.426;9.206;2023-10-19T00:18:16;55.10;;;39.65;;
32393;SDS011;18853;45.426;9.206;2023-10-19T00:20:43;51.65;;;38.55;;
32393;SDS011;18853;45.426;9.206;2023-10-19T00:23:10;52.05;;;39.40;;
32393;SDS011;18853;45.426;9.206;2023-10-19T00:25:38;57.03;;;39.33;;
32393;SDS011;18853;45.426;9.206;2023-10-19T00:28:06;56.08;;;40.33;;
32393;SDS011;18853;45.426;9.206;2023-10-19T00:30:32;54.67;;;39.30;;
32393;SDS011;18853;45.426;9.206;2023-10-19T00:33:01;55.30;;;41.28;;
32393;SDS011;18853;45.426;9.206;2023-10-19T00:35:33;56.33;;;39.05;;
32393;SDS011;18853;45.426;9.206;2023-10-19T00:37:59;58.53;;;41.00;;
32393;SDS011;18853;45.426;9.206;2023-10-19T00:40:51;57.55;;;40.78;;
32393;SDS011;18853;45.426;9.206;2023-10-19T00:43:53;57.03;;;41.30;;
32393;SDS011;18853;45.426;9.206;2023-10-19T00:46:37;51.28;;;38.90;;
32393;SDS011;18853;45.426;9.206;2023-10-19T00:49:06;54.00;;;40.45;;
32393;SDS011;18853;45.426;9.206;2023-10-19T00:51:42;57.45;;;41.25;;
32393;SDS011;18853;45.426;9.206;2023-10-19T00:54:33;58.05;;;40.60;;
32393;SDS011;18853;45.426;9.206;2023-10-19T00:57:02;53.25;;;39.08;;
32393;SDS011;18853;45.426;9.206;2023-10-19T00:59:33;55.17;;;40.28;;
32393;SDS011;18853;45.426;9.206;2023-10-19T01:02:22;54.80;;;39.92;;
32393;SDS011;18853;45.426;9.206;2023-10-19T01:04:51;57.50;;;39.53;;
32393;SDS011;18853;45.426;9.206;2023-10-19T01:07:23;56.30;;;39.78;;
32393;SDS011;18853;45.426;9.206;2023-10-19T01:09:54;56.60;;;39.45;;
32393;SDS011;18853;45.426;9.206;2023-10-19T01:12:22;60.67;;;41.00;;
32393;SDS011;18853;45.426;9.206;2023-10-19T01:15:06;61.30;;;41.17;;
32393;SDS011;18853;45.426;9.206;2023-10-19T01:17:44;62.75;;;41.78;;
32393;SDS011;18853;45.426;9.206;2023-10-19T01:20:12;58.22;;;40.90;;
32393;SDS011;18853;45.426;9.206;2023-10-19T01:22:48;58.63;;;42.67;;
32393;SDS011;18853;45.426;9.206;2023-10-19T01:28:09;60.92;;;43.00;;
32393;SDS011;18853;45.426;9.206;2023-10-19T01:30:36;59.67;;;43.15;;
32393;SDS011;18853;45.426;9.206;2023-10-19T01:33:03;58.75;;;42.60;;
32393;SDS011;18853;45.426;9.206;2023-10-19T01:35:29;66.38;;;43.17;;
32393;SDS011;18853;45.426;9.206;2023-10-19T01:38:14;67.63;;;42.67;;
32393;SDS011;18853;45.426;9.206;2023-10-19T01:40:40;65.60;;;44.17;;
32393;SDS011;18853;45.426;9.206;2023-10-19T01:43:11;59.05;;;42.45;;
32393;SDS011;18853;45.426;9.206;2023-10-19T01:45:45;65.70;;;44.22;;
32393;SDS011;18853;45.426;9.206;2023-10-19T01:48:11;58.47;;;43.28;;
32393;SDS011;18853;45.426;9.206;2023-10-19T01:50:38;61.28;;;43.10;;
32393;SDS011;18853;45.426;9.206;2023-10-19T01:53:04;64.47;;;43.60;;
32393;SDS011;18853;45.426;9.206;2023-10-19T01:55:40;63.72;;;42.88;;
32393;SDS011;18853;45.426;9.206;2023-10-19T01:58:09;61.42;;;42.75;;
32393;SDS011;18853;45.426;9.206;2023-10-19T02:00:35;66.22;;;43.25;;
32393;SDS011;18853;45.426;9.206;2023-10-19T02:03:07;64.60;;;42.92;;
32393;SDS011;18853;45.426;9.206;2023-10-19T02:05:33;66.32;;;44.10;;
32393;SDS011;18853;45.426;9.206;2023-10-19T02:08:08;68.90;;;44.50;;
32393;SDS011;18853;45.426;9.206;2023-10-19T02:10:36;63.33;;;43.97;;
32393;SDS011;18853;45.426;9.206;2023-10-19T02:13:07;60.00;;;42.90;;
32393;SDS011;18853;45.426;9.206;2023-10-19T02:15:33;62.08;;;42.50;;
32393;SDS011;18853;45.426;9.206;2023-10-19T02:18:00;60.58;;;44.03;;
32393;SDS011;18853;45.426;9.206;2023-10-19T02:20:28;62.20;;;43.88;;
32393;SDS011;18853;45.426;9.206;2023-10-19T02:22:54;59.30;;;42.72;;
32393;SDS011;18853;45.426;9.206;2023-10-19T02:25:22;61.80;;;43.38;;
32393;SDS011;18853;45.426;9.206;2023-10-19T02:27:56;59.85;;;43.25;;
32393;SDS011;18853;45.426;9.206;2023-10-19T02:30:21;59.53;;;43.17;;
32393;SDS011;18853;45.426;9.206;2023-10-19T02:32:49;59.67;;;43.63;;
32393;SDS011;18853;45.426;9.206;2023-10-19T02:35:15;63.15;;;44.00;;
32393;SDS011;18853;45.426;9.206;2023-10-19T02:37:41;61.78;;;43.42;;
32393;SDS011;18853;45.426;9.206;2023-10-19T02:40:07;60.03;;;43.92;;
32393;SDS011;18853;45.426;9.206;2023-10-19T02:42:45;58.08;;;42.42;;
32393;SDS011;18853;45.426;9.206;2023-10-19T02:45:15;58.63;;;43.15;;
32393;SDS011;18853;45.426;9.206;2023-10-19T02:47:45;60.45;;;44.88;;
32393;SDS011;18853;45.426;9.206;2023-10-19T02:50:12;58.67;;;44.35;;
32393;SDS011;18853;45.426;9.206;2023-10-19T02:52:42;62.65;;;45.15;;
32393;SDS011;18853;45.426;9.206;2023-10-19T02:55:08;61.67;;;46.05;;
32393;SDS011;18853;45.426;9.206;2023-10-19T02:57:35;60.55;;;43.47;;
32393;SDS011;18853;45.426;9.206;2023-10-19T03:00:04;60.80;;;45.15;;
32393;SDS011;18853;45.426;9.206;2023-10-19T03:02:40;58.78;;;44.22;;
32393;SDS011;18853;45.426;9.206;2023-10-19T03:05:06;59.85;;;43.97;;
32393;SDS011;18853;45.426;9.206;2023-10-19T03:07:50;61.13;;;45.88;;
32393;SDS011;18853;45.426;9.206;2023-10-19T03:10:17;58.78;;;43.72;;
32393;SDS011;18853;45.426;9.206;2023-10-19T03:12:49;56.95;;;43.28;;
32393;SDS011;18853;45.426;9.206;2023-10-19T03:15:16;59.45;;;43.70;;
32393;SDS011;18853;45.426;9.206;2023-10-19T03:17:44;56.53;;;43.38;;
32393;SDS011;18853;45.426;9.206;2023-10-19T03:20:10;58.08;;;43.42;;
32393;SDS011;18853;45.426;9.206;2023-10-19T03:22:36;60.40;;;43.47;;
32393;SDS011;18853;45.426;9.206;2023-10-19T03:25:04;60.53;;;44.63;;
32393;SDS011;18853;45.426;9.206;2023-10-19T03:27:49;63.92;;;43.97;;
32393;SDS011;18853;45.426;9.206;2023-10-19T03:30:14;60.00;;;42.55;;
32393;SDS011;18853;45.426;9.206;2023-10-19T03:32:43;56.72;;;42.88;;
32393;SDS011;18853;45.426;9.206;2023-10-19T03:35:08;56.03;;;41.75;;
32393;SDS011;18853;45.426;9.206;2023-10-19T03:37:40;56.20;;;42.05;;
32393;SDS011;18853;45.426;9.206;2023-10-19T03:40:06;55.38;;;41.63;;
32393;SDS011;18853;45.426;9.206;2023-10-19T03:42:34;54.42;;;41.28;;
32393;SDS011;18853;45.426;9.206;2023-10-19T03:45:06;52.45;;;41.15;;
32393;SDS011;18853;45.426;9.206;2023-10-19T03:47:38;54.88;;;42.50;;
32393;SDS011;18853;45.426;9.206;2023-10-19T03:50:05;54.00;;;41.05;;
32393;SDS011;18853;45.426;9.206;2023-10-19T03:52:32;46.92;;;37.65;;
32393;SDS011;18853;45.426;9.206;2023-10-19T03:55:02;50.05;;;38.47;;
32393;SDS011;18853;45.426;9.206;2023-10-19T03:57:30;50.80;;;38.85;;
32393;SDS011;18853;45.426;9.206;2023-10-19T03:59:56;46.67;;;38.15;;
32393;SDS011;18853;45.426;9.206;2023-10-19T04:02:22;45.67;;;36.85;;
32393;SDS011;18853;45.426;9.206;2023-10-19T04:05:00;47.53;;;38.92;;
32393;SDS011;18853;45.426;9.206;2023-10-19T04:07:26;46.40;;;36.50;;
32393;SDS011;18853;45.426;9.206;2023-10-19T04:09:56;48.42;;;38.55;;
32393;SDS011;18853;45.426;9.206;2023-10-19T04:12:34;46.58;;;37.28;;
32393;SDS011;18853;45.426;9.206;2023-10-19T04:15:02;49.95;;;40.72;;
32393;SDS011;18853;45.426;9.206;2023-10-19T04:17:45;46.55;;;37.78;;
32393;SDS011;18853;45.426;9.206;2023-10-19T04:20:12;46.35;;;38.03;;
32393;SDS011;18853;45.426;9.206;2023-10-19T04:22:58;47.25;;;39.83;;
32393;SDS011;18853;45.426;9.206;2023-10-19T04:25:31;49.63;;;40.13;;
32393;SDS011;18853;45.426;9.206;2023-10-19T04:27:57;48.38;;;40.35;;
32393;SDS011;18853;45.426;9.206;2023-10-19T04:30:22;52.88;;;41.45;;
32393;SDS011;18853;45.426;9.206;2023-10-19T04:32:48;52.47;;;41.30;;
32393;SDS011;18853;45.426;9.206;2023-10-19T04:35:15;53.75;;;42.55;;
32393;SDS011;18853;45.426;9.206;2023-10-19T04:37:51;51.78;;;41.78;;
32393;SDS011;18853;45.426;9.206;2023-10-19T04:40:21;52.38;;;41.53;;
32393;SDS011;18853;45.426;9.206;2023-10-19T04:42:48;50.03;;;40.40;;
32393;SDS011;18853;45.426;9.206;2023-10-19T04:45:15;53.88;;;42.38;;
32393;SDS011;18853;45.426;9.206;2023-10-19T04:47:41;53.38;;;41.97;;
32393;SDS011;18853;45.426;9.206;2023-10-19T04:50:06;52.20;;;42.33;;
32393;SDS011;18853;45.426;9.206;2023-10-19T04:52:33;51.95;;;41.55;;
32393;SDS011;18853;45.426;9.206;2023-10-19T04:54:59;51.35;;;41.70;;
32393;SDS011;18853;45.426;9.206;2023-10-19T04:57:26;52.88;;;43.35;;
32393;SDS011;18853;45.426;9.206;2023-10-19T04:59:52;54.08;;;43.15;;
32393;SDS011;18853;45.426;9.206;2023-10-19T05:02:17;53.28;;;43.67;;
32393;SDS011;18853;45.426;9.206;2023-10-19T05:04:44;57.33;;;44.90;;
32393;SDS011;18853;45.426;9.206;2023-10-19T05:07:13;56.15;;;44.97;;
32393;SDS011;18853;45.426;9.206;2023-10-19T05:09:42;56.63;;;46.00;;
32393;SDS011;18853;45.426;9.206;2023-10-19T05:12:09;56.45;;;45.50;;
32393;SDS011;18853;45.426;9.206;2023-10-19T05:14:36;58.38;;;45.70;;
32393;SDS011;18853;45.426;9.206;2023-10-19T05:17:02;58.92;;;47.00;;
32393;SDS011;18853;45.426;9.206;2023-10-19T05:19:33;60.33;;;47.28;;
32393;SDS011;18853;45.426;9.206;2023-10-19T05:22:00;58.22;;;47.45;;
32393;SDS011;18853;45.426;9.206;2023-10-19T05:24:27;60.53;;;46.55;;
32393;SDS011;18853;45.426;9.206;2023-10-19T05:26:53;63.03;;;48.45;;
32393;SDS011;18853;45.426;9.206;2023-10-19T05:29:19;61.08;;;47.70;;
32393;SDS011;18853;45.426;9.206;2023-10-19T05:31:46;61.28;;;47.83;;
32393;SDS011;18853;45.426;9.206;2023-10-19T05:34:12;65.07;;;50.08;;
32393;SDS011;18853;45.426;9.206;2023-10-19T05:36:37;63.85;;;49.15;;
32393;SDS011;18853;45.426;9.206;2023-10-19T05:39:04;63.47;;;49.80;;
32393;SDS011;18853;45.426;9.206;2023-10-19T05:41:33;62.88;;;48.88;;
32393;SDS011;18853;45.426;9.206;2023-10-19T05:44:02;63.45;;;49.25;;
32393;SDS011;18853;45.426;9.206;2023-10-19T05:46:28;63.70;;;49.97;;
32393;SDS011;18853;45.426;9.206;2023-10-19T05:48:54;62.65;;;49.05;;
32393;SDS011;18853;45.426;9.206;2023-10-19T05:51:21;62.58;;;49.33;;
32393;SDS011;18853;45.426;9.206;2023-10-19T05:53:47;61.75;;;47.83;;
32393;SDS011;18853;45.426;9.206;2023-10-19T05:56:13;58.95;;;47.17;;
32393;SDS011;18853;45.426;9.206;2023-10-19T05:58:41;61.85;;;47.22;;
32393;SDS011;18853;45.426;9.206;2023-10-19T06:01:07;62.13;;;49.67;;
32393;SDS011;18853;45.426;9.206;2023-10-19T06:03:32;65.07;;;49.97;;
32393;SDS011;18853;45.426;9.206;2023-10-19T06:05:58;64.75;;;49.85;;
32393;SDS011;18853;45.426;9.206;2023-10-19T06:08:23;63.45;;;50.58;;
32393;SDS011;18853;45.426;9.206;2023-10-19T06:10:53;60.50;;;47.08;;
32393;SDS011;18853;45.426;9.206;2023-10-19T06:13:19;58.95;;;46.50;;
32393;SDS011;18853;45.426;9.206;2023-10-19T06:15:45;63.55;;;48.90;;
32393;SDS011;18853;45.426;9.206;2023-10-19T06:18:12;59.35;;;47.33;;
32393;SDS011;18853;45.426;9.206;2023-10-19T06:20:42;56.88;;;46.22;;
32393;SDS011;18853;45.426;9.206;2023-10-19T06:23:11;58.53;;;45.80;;
32393;SDS011;18853;45.426;9.206;2023-10-19T06:25:37;54.63;;;43.70;;
32393;SDS011;18853;45.426;9.206;2023-10-19T06:28:04;54.28;;;43.75;;
32393;SDS011;18853;45.426;9.206;2023-10-19T06:30:30;55.38;;;43.80;;
32393;SDS011;18853;45.426;9.206;2023-10-19T06:32:56;54.75;;;44.75;;
32393;SDS011;18853;45.426;9.206;2023-10-19T06:35:26;53.90;;;43.97;;
32393;SDS011;18853;45.426;9.206;2023-10-19T06:37:53;51.45;;;42.47;;
32393;SDS011;18853;45.426;9.206;2023-10-19T06:40:22;55.28;;;45.05;;
32393;SDS011;18853;45.426;9.206;2023-10-19T06:42:48;51.50;;;42.78;;
32393;SDS011;18853;45.426;9.206;2023-10-19T06:45:15;50.50;;;42.50;;
32393;SDS011;18853;45.426;9.206;2023-10-19T06:47:44;46.95;;;38.80;;
32393;SDS011;18853;45.426;9.206;2023-10-19T06:50:11;46.92;;;40.95;;
32393;SDS011;18853;45.426;9.206;2023-10-19T06:52:40;51.38;;;41.15;;
32393;SDS011;18853;45.426;9.206;2023-10-19T06:55:07;48.75;;;40.28;;
32393;SDS011;18853;45.426;9.206;2023-10-19T06:57:45;49.53;;;40.55;;
32393;SDS011;18853;45.426;9.206;2023-10-19T07:00:15;47.45;;;40.00;;
32393;SDS011;18853;45.426;9.206;2023-10-19T07:02:44;48.78;;;40.97;;
32393;SDS011;18853;45.426;9.206;2023-10-19T07:05:15;45.05;;;38.10;;
32393;SDS011;18853;45.426;9.206;2023-10-19T07:07:49;44.65;;;37.25;;
32393;SDS011;18853;45.426;9.206;2023-10-19T07:10:17;43.75;;;37.33;;
32393;SDS011;18853;45.426;9.206;2023-10-19T07:12:44;44.67;;;38.15;;
32393;SDS011;18853;45.426;9.206;2023-10-19T07:15:11;46.65;;;39.28;;
32393;SDS011;18853;45.426;9.206;2023-10-19T07:17:41;49.95;;;40.33;;
32393;SDS011;18853;45.426;9.206;2023-10-19T07:20:08;47.53;;;40.13;;
32393;SDS011;18853;45.426;9.206;2023-10-19T07:22:55;47.55;;;39.63;;
32393;SDS011;18853;45.426;9.206;2023-10-19T07:25:22;44.58;;;38.30;;
32393;SDS011;18853;45.426;9.206;2023-10-19T07:27:50;44.92;;;37.85;;
32393;SDS011;18853;45.426;9.206;2023-10-19T07:30:19;45.30;;;38.40;;
32393;SDS011;18853;45.426;9.206;2023-10-19T07:32:49;45.45;;;38.58;;
32393;SDS011;18853;45.426;9.206;2023-10-19T07:35:19;46.42;;;39.08;;
32393;SDS011;18853;45.426;9.206;2023-10-19T07:37:47;47.75;;;39.28;;
32393;SDS011;18853;45.426;9.206;2023-10-19T07:40:15;50.72;;;40.75;;
32393;SDS011;18853;45.426;9.206;2023-10-19T07:42:42;52.63;;;41.55;;
32393;SDS011;18853;45.426;9.206;2023-10-19T07:45:08;50.75;;;43.20;;
32393;SDS011;18853;45.426;9.206;2023-10-19T07:47:39;49.85;;;42.20;;
32393;SDS011;18853;45.426;9.206;2023-10-19T07:50:07;52.55;;;42.17;;
32393;SDS011;18853;45.426;9.206;2023-10-19T07:52:37;54.47;;;42.85;;
32393;SDS011;18853;45.426;9.206;2023-10-19T07:55:04;55.28;;;42.55;;
32393;SDS011;18853;45.426;9.206;2023-10-19T07:57:32;52.47;;;42.47;;
32393;SDS011;18853;45.426;9.206;2023-10-19T07:59:59;52.08;;;43.08;;
32393;SDS011;18853;45.426;9.206;2023-10-19T08:02:24;53.05;;;42.67;;
32393;SDS011;18853;45.426;9.206;2023-10-19T08:04:50;52.60;;;41.90;;
32393;SDS011;18853;45.426;9.206;2023-10-19T08:07:17;52.38;;;42.72;;
32393;SDS011;18853;45.426;9.206;2023-10-19T08:09:42;52.70;;;42.10;;
32393;SDS011;18853;45.426;9.206;2023-10-19T08:12:09;51.15;;;41.15;;
32393;SDS011;18853;45.426;9.206;2023-10-19T08:14:35;50.42;;;40.35;;
32393;SDS011;18853;45.426;9.206;2023-10-19T08:17:01;46.63;;;40.03;;
32393;SDS011;18853;45.426;9.206;2023-10-19T08:19:28;43.25;;;38.38;;
32393;SDS011;18853;45.426;9.206;2023-10-19T08:21:56;45.08;;;38.10;;
32393;SDS011;18853;45.426;9.206;2023-10-19T08:24:22;48.42;;;39.05;;
32393;SDS011;18853;45.426;9.206;2023-10-19T08:26:48;44.45;;;36.85;;
32393;SDS011;18853;45.426;9.206;2023-10-19T08:29:15;45.13;;;37.00;;
32393;SDS011;18853;45.426;9.206;2023-10-19T08:31:42;43.50;;;36.67;;
32393;SDS011;18853;45.426;9.206;2023-10-19T08:34:09;43.08;;;36.00;;
32393;SDS011;18853;45.426;9.206;2023-10-19T08:36:36;42.47;;;35.22;;
32393;SDS011;18853;45.426;9.206;2023-10-19T08:39:05;37.38;;;33.28;;
32393;SDS011;18853;45.426;9.206;2023-10-19T08:41:37;36.00;;;31.75;;
32393;SDS011;18853;45.426;9.206;2023-10-19T08:44:05;38.03;;;31.50;;
32393;SDS011;18853;45.426;9.206;2023-10-19T08:46:36;37.00;;;32.30;;
32393;SDS011;18853;45.426;9.206;2023-10-19T08:49:06;35.83;;;31.15;;
32393;SDS011;18853;45.426;9.206;2023-10-19T08:51:35;34.30;;;30.50;;
32393;SDS011;18853;45.426;9.206;2023-10-19T08:54:03;33.83;;;30.02;;
32393;SDS011;18853;45.426;9.206;2023-10-19T08:56:31;34.72;;;30.65;;
32393;SDS011;18853;45.426;9.206;2023-10-19T08:58:58;33.95;;;29.30;;
32393;SDS011;18853;45.426;9.206;2023-10-19T09:01:26;32.47;;;28.65;;
32393;SDS011;18853;45.426;9.206;2023-10-19T09:04:00;31.45;;;28.05;;
32393;SDS011;18853;45.426;9.206;2023-10-19T09:06:26;33.10;;;29.10;;
32393;SDS011;18853;45.426;9.206;2023-10-19T09:08:54;35.40;;;30.33;;
32393;SDS011;18853;45.426;9.206;2023-10-19T09:11:20;34.33;;;30.10;;
32393;SDS011;18853;45.426;9.206;2023-10-19T09:16:13;32.53;;;28.92;;
32393;SDS011;18853;45.426;9.206;2023-10-19T09:18:40;31.38;;;26.73;;
32393;SDS011;18853;45.426;9.206;2023-10-19T09:21:06;28.45;;;25.35;;
32393;SDS011;18853;45.426;9.206;2023-10-19T09:23:33;31.70;;;27.13;;
32393;SDS011;18853;45.426;9.206;2023-10-19T09:26:00;28.70;;;25.63;;
32393;SDS011;18853;45.426;9.206;2023-10-19T09:28:28;29.75;;;26.38;;
32393;SDS011;18853;45.426;9.206;2023-10-19T09:30:54;30.70;;;26.85;;
32393;SDS011;18853;45.426;9.206;2023-10-19T09:33:21;30.00;;;26.63;;
32393;SDS011;18853;45.426;9.206;2023-10-19T09:35:49;29.52;;;26.30;;
32393;SDS011;18853;45.426;9.206;2023-10-19T09:38:18;29.20;;;26.00;;
32393;SDS011;18853;45.426;9.206;2023-10-19T09:40:54;30.15;;;25.58;;
32393;SDS011;18853;45.426;9.206;2023-10-19T09:43:33;28.88;;;24.48;;
32393;SDS011;18853;45.426;9.206;2023-10-19T09:46:11;25.52;;;22.85;;
32393;SDS011;18853;45.426;9.206;2023-10-19T09:48:46;27.00;;;22.55;;
32393;SDS011;18853;45.426;9.206;2023-10-19T09:51:13;26.15;;;23.33;;
32393;SDS011;18853;45.426;9.206;2023-10-19T09:53:41;26.65;;;23.45;;
32393;SDS011;18853;45.426;9.206;2023-10-19T09:56:31;25.50;;;22.80;;
32393;SDS011;18853;45.426;9.206;2023-10-19T09:59:06;27.35;;;23.02;;
32393;SDS011;18853;45.426;9.206;2023-10-19T10:04:32;26.23;;;23.38;;
32393;SDS011;18853;45.426;9.206;2023-10-19T10:07:00;24.88;;;21.92;;
32393;SDS011;18853;45.426;9.206;2023-10-19T10:09:26;26.10;;;23.30;;
32393;SDS011;18853;45.426;9.206;2023-10-19T10:11:52;24.10;;;21.50;;
32393;SDS011;18853;45.426;9.206;2023-10-19T10:14:25;23.98;;;21.45;;
32393;SDS011;18853;45.426;9.206;2023-10-19T10:17:03;24.67;;;21.98;;
32393;SDS011;18853;45.426;9.206;2023-10-19T10:19:34;24.08;;;21.50;;
32393;SDS011;18853;45.426;9.206;2023-10-19T10:22:03;23.90;;;21.35;;
32393;SDS011;18853;45.426;9.206;2023-10-19T10:24:39;24.02;;;20.92;;
32393;SDS011;18853;45.426;9.206;2023-10-19T10:27:08;24.13;;;21.65;;
32393;SDS011;18853;45.426;9.206;2023-10-19T10:29:35;24.95;;;22.27;;
32393;SDS011;18853;45.426;9.206;2023-10-19T10:32:01;25.30;;;22.60;;
32393;SDS011;18853;45.426;9.206;2023-10-19T10:37:02;24.60;;;21.27;;
32393;SDS011;18853;45.426;9.206;2023-10-19T10:39:36;22.63;;;20.33;;
32393;SDS011;18853;45.426;9.206;2023-10-19T10:42:03;22.80;;;20.15;;
32393;SDS011;18853;45.426;9.206;2023-10-19T10:44:46;21.63;;;19.33;;
32393;SDS011;18853;45.426;9.206;2023-10-19T10:54:55;23.27;;;19.45;;
32393;SDS011;18853;45.426;9.206;2023-10-19T10:57:21;22.05;;;19.48;;
32393;SDS011;18853;45.426;9.206;2023-10-19T11:00:00;22.40;;;19.83;;
32393;SDS011;18853;45.426;9.206;2023-10-19T11:02:40;21.80;;;19.50;;
32393;SDS011;18853;45.426;9.206;2023-10-19T11:05:10;21.85;;;19.48;;
32393;SDS011;18853;45.426;9.206;2023-10-19T11:07:37;21.40;;;19.10;;
32393;SDS011;18853;45.426;9.206;2023-10-19T11:10:04;21.17;;;18.48;;
32393;SDS011;18853;45.426;9.206;2023-10-19T11:12:30;20.75;;;18.58;;
32393;SDS011;18853;45.426;9.206;2023-10-19T11:14:57;20.95;;;18.75;;
32393;SDS011;18853;45.426;9.206;2023-10-19T11:17:24;20.83;;;18.65;;
32393;SDS011;18853;45.426;9.206;2023-10-19T11:19:55;22.10;;;19.77;;
32393;SDS011;18853;45.426;9.206;2023-10-19T11:22:22;23.40;;;19.08;;
32393;SDS011;18853;45.426;9.206;2023-10-19T11:24:52;20.83;;;18.63;;
32393;SDS011;18853;45.426;9.206;2023-10-19T11:27:28;23.50;;;20.55;;
32393;SDS011;18853;45.426;9.206;2023-10-19T11:32:21;21.70;;;19.38;;
32393;SDS011;18853;45.426;9.206;2023-10-19T11:34:47;24.00;;;18.92;;
32393;SDS011;18853;45.426;9.206;2023-10-19T11:37:13;20.13;;;18.05;;
32393;SDS011;18853;45.426;9.206;2023-10-19T11:39:38;21.80;;;19.42;;
32393;SDS011;18853;45.426;9.206;2023-10-19T11:42:04;21.50;;;18.70;;
32393;SDS011;18853;45.426;9.206;2023-10-19T11:44:30;19.58;;;17.58;;
32393;SDS011;18853;45.426;9.206;2023-10-19T11:46:55;20.48;;;18.27;;
32393;SDS011;18853;45.426;9.206;2023-10-19T11:49:21;19.48;;;17.38;;
32393;SDS011;18853;45.426;9.206;2023-10-19T11:51:48;18.95;;;17.05;;
32393;SDS011;18853;45.426;9.206;2023-10-19T11:54:13;20.48;;;18.27;;
32393;SDS011;18853;45.426;9.206;2023-10-19T11:56:39;20.08;;;16.90;;
32393;SDS011;18853;45.426;9.206;2023-10-19T11:59:04;20.67;;;17.27;;
32393;SDS011;18853;45.426;9.206;2023-10-19T12:01:32;19.17;;;17.08;;
32393;SDS011;18853;45.426;9.206;2023-10-19T12:03:57;19.25;;;17.10;;
32393;SDS011;18853;45.426;9.206;2023-10-19T12:06:25;19.70;;;17.65;;
32393;SDS011;18853;45.426;9.206;2023-10-19T12:08:50;19.38;;;16.85;;
32393;SDS011;18853;45.426;9.206;2023-10-19T12:11:16;19.73;;;17.27;;
32393;SDS011;18853;45.426;9.206;2023-10-19T12:13:43;19.33;;;16.70;;
32393;SDS011;18853;45.426;9.206;2023-10-19T12:16:09;19.92;;;17.77;;
32393;SDS011;18853;45.426;9.206;2023-10-19T12:18:38;25.10;;;20.38;;
32393;SDS011;18853;45.426;9.206;2023-10-19T12:21:04;33.97;;;30.38;;
32393;SDS011;18853;45.426;9.206;2023-10-19T12:23:32;39.70;;;35.60;;
32393;SDS011;18853;45.426;9.206;2023-10-19T12:25:58;39.10;;;35.10;;
32393;SDS011;18853;45.426;9.206;2023-10-19T12:28:28;37.53;;;33.83;;
32393;SDS011;18853;45.426;9.206;2023-10-19T12:30:53;31.10;;;27.90;;
32393;SDS011;18853;45.426;9.206;2023-10-19T12:33:21;30.65;;;27.08;;
32393;SDS011;18853;45.426;9.206;2023-10-19T12:35:46;29.52;;;26.48;;
32393;SDS011;18853;45.426;9.206;2023-10-19T12:38:22;30.83;;;26.38;;
32393;SDS011;18853;45.426;9.206;2023-10-19T12:40:49;27.98;;;25.02;;
32393;SDS011;18853;45.426;9.206;2023-10-19T12:43:19;27.65;;;24.75;;
32393;SDS011;18853;45.426;9.206;2023-10-19T12:45:47;25.52;;;22.70;;
32393;SDS011;18853;45.426;9.206;2023-10-19T12:48:15;23.00;;;20.50;;
32393;SDS011;18853;45.426;9.206;2023-10-19T12:50:42;24.75;;;21.20;;
32393;SDS011;18853;45.426;9.206;2023-10-19T12:53:08;22.55;;;20.15;;
32393;SDS011;18853;45.426;9.206;2023-10-19T12:55:34;23.75;;;19.73;;
32393;SDS011;18853;45.426;9.206;2023-10-19T12:58:02;24.55;;;20.80;;
32393;SDS011;18853;45.426;9.206;2023-10-19T13:00:32;27.05;;;21.63;;
32393;SDS011;18853;45.426;9.206;2023-10-19T13:03:06;26.05;;;20.88;;
32393;SDS011;18853;45.426;9.206;2023-10-19T13:05:32;25.70;;;20.98;;
32393;SDS011;18853;45.426;9.206;2023-10-19T13:07:59;29.15;;;23.17;;
32393;SDS011;18853;45.426;9.206;2023-10-19T13:10:31;28.65;;;23.42;;
32393;SDS011;18853;45.426;9.206;2023-10-19T13:13:01;28.38;;;22.92;;
32393;SDS011;18853;45.426;9.206;2023-10-19T13:15:29;26.52;;;22.00;;
32393;SDS011;18853;45.426;9.206;2023-10-19T13:18:05;27.95;;;23.08;;
32393;SDS011;18853;45.426;9.206;2023-10-19T13:20:34;26.92;;;22.05;;
32393;SDS011;18853;45.426;9.206;2023-10-19T13:23:05;27.27;;;22.25;;
32393;SDS011;18853;45.426;9.206;2023-10-19T13:25:36;28.90;;;22.80;;
32393;SDS011;18853;45.426;9.206;2023-10-19T13:28:31;27.30;;;22.92;;
32393;SDS011;18853;45.426;9.206;2023-10-19T13:30:57;30.55;;;22.90;;
32393;SDS011;18853;45.426;9.206;2023-10-19T13:33:23;27.48;;;23.55;;
32393;SDS011;18853;45.426;9.206;2023-10-19T13:35:51;30.75;;;25.27;;
32393;SDS011;18853;45.426;9.206;2023-10-19T13:38:18;26.10;;;22.48;;
32393;SDS011;18853;45.426;9.206;2023-10-19T13:40:47;30.05;;;23.65;;
32393;SDS011;18853;45.426;9.206;2023-10-19T13:43:15;28.55;;;23.45;;
32393;SDS011;18853;45.426;9.206;2023-10-19T13:45:46;27.02;;;23.33;;
32393;SDS011;18853;45.426;9.206;2023-10-19T13:48:12;27.58;;;23.52;;
32393;SDS011;18853;45.426;9.206;2023-10-19T13:50:42;25.75;;;22.25;;
32393;SDS011;18853;45.426;9.206;2023-10-19T13:53:10;25.83;;;21.90;;
32393;SDS011;18853;45.426;9.206;2023-10-19T13:55:36;27.20;;;22.90;;
32393;SDS011;18853;45.426;9.206;2023-10-19T13:58:02;28.08;;;22.83;;
32393;SDS011;18853;45.426;9.206;2023-10-19T14:00:28;25.55;;;21.35;;
32393;SDS011;18853;45.426;9.206;2023-10-19T14:03:00;28.55;;;21.55;;
32393;SDS011;18853;45.426;9.206;2023-10-19T14:05:27;24.33;;;21.00;;
32393;SDS011;18853;45.426;9.206;2023-10-19T14:07:54;25.90;;;21.17;;
32393;SDS011;18853;45.426;9.206;2023-10-19T14:10:20;23.92;;;21.35;;
32393;SDS011;18853;45.426;9.206;2023-10-19T14:12:46;25.55;;;22.10;;
32393;SDS011;18853;45.426;9.206;2023-10-19T14:15:17;27.48;;;23.13;;
32393;SDS011;18853;45.426;9.206;2023-10-19T14:17:44;28.90;;;24.45;;
32393;SDS011;18853;45.426;9.206;2023-10-19T14:20:11;24.42;;;21.25;;
32393;SDS011;18853;45.426;9.206;2023-10-19T14:22:41;26.02;;;22.08;;
32393;SDS011;18853;45.426;9.206;2023-10-19T14:25:11;28.05;;;21.55;;
32393;SDS011;18853;45.426;9.206;2023-10-19T14:27:39;24.77;;;21.10;;
32393;SDS011;18853;45.426;9.206;2023-10-19T14:30:06;24.85;;;20.25;;
32393;SDS011;18853;45.426;9.206;2023-10-19T14:32:32;23.48;;;20.52;;
32393;SDS011;18853;45.426;9.206;2023-10-19T14:34:58;21.83;;;19.45;;
32393;SDS011;18853;45.426;9.206;2023-10-19T14:37:24;25.00;;;21.10;;
32393;SDS011;18853;45.426;9.206;2023-10-19T14:39:50;23.40;;;20.08;;
32393;SDS011;18853;45.426;9.206;2023-10-19T14:42:16;22.75;;;20.33;;
32393;SDS011;18853;45.426;9.206;2023-10-19T14:44:41;23.45;;;20.33;;
32393;SDS011;18853;45.426;9.206;2023-10-19T14:47:07;21.25;;;18.98;;
32393;SDS011;18853;45.426;9.206;2023-10-19T14:49:33;21.70;;;19.40;;
32393;SDS011;18853;45.426;9.206;2023-10-19T14:51:58;22.30;;;19.55;;